sensor_id;sensor_type;location;lat;lon;timestamp;P1;durP1;ratioP1;P2;durP2;ratioP2
41293;SDS011;27037;52.010;4.446;2022-08-19T00:00:04;23.02;;;13.52;;
41293;SDS011;27037;52.010;4.446;2022-08-19T00:02:34;17.50;;;11.93;;
41293;SDS011;27037;52.010;4.446;2022-08-19T00:05:01;17.95;;;12.18;;
41293;SDS011;27037;52.010;4.446;2022-08-19T00:07:27;20.02;;;12.00;;
41293;SDS011;27037;52.010;4.446;2022-08-19T00:09:53;16.50;;;12.15;;
41293;SDS011;27037;52.010;4.446;2022-08-19T00:12:19;19.35;;;13.05;;
41293;SDS011;27037;52.010;4.446;2022-08-19T00:14:44;17.70;;;12.32;;
41293;SDS011;27037;52.010;4.446;2022-08-19T00:17:10;22.35;;;13.13;;
41293;SDS011;27037;52.010;4.446;2022-08-19T00:19:36;18.60;;;12.88;;
41293;SDS011;27037;52.010;4.446;2022-08-19T00:22:03;20.08;;;14.50;;
41293;SDS011;27037;52.010;4.446;2022-08-19T00:24:30;23.08;;;14.95;;
41293;SDS011;27037;52.010;4.446;2022-08-19T00:26:56;24.73;;;15.30;;
41293;SDS011;27037;52.010;4.446;2022-08-19T00:29:23;21.75;;;14.93;;
41293;SDS011;27037;52.010;4.446;2022-08-19T00:31:50;29.30;;;15.07;;
41293;SDS011;27037;52.010;4.446;2022-08-19T00:34:19;23.40;;;14.77;;
41293;SDS011;27037;52.010;4.446;2022-08-19T00:36:45;23.52;;;14.73;;
41293;SDS011;27037;52.010;4.446;2022-08-19T00:39:12;19.88;;;14.10;;
41293;SDS011;27037;52.010;4.446;2022-08-19T00:41:40;22.67;;;15.40;;
41293;SDS011;27037;52.010;4.446;2022-08-19T00:44:11;24.35;;;16.33;;
41293;SDS011;27037;52.010;4.446;2022-08-19T00:46:39;23.30;;;14.73;;
41293;SDS011;27037;52.010;4.446;2022-08-19T00:49:10;25.58;;;14.88;;
41293;SDS011;27037;52.010;4.446;2022-08-19T00:51:58;22.13;;;15.10;;
41293;SDS011;27037;52.010;4.446;2022-08-19T00:54:28;24.40;;;14.63;;
41293;SDS011;27037;52.010;4.446;2022-08-19T00:56:56;22.50;;;15.13;;
41293;SDS011;27037;52.010;4.446;2022-08-19T00:59:22;22.42;;;13.88;;
41293;SDS011;27037;52.010;4.446;2022-08-19T01:01:49;21.50;;;13.52;;
41293;SDS011;27037;52.010;4.446;2022-08-19T01:04:15;23.48;;;13.65;;
41293;SDS011;27037;52.010;4.446;2022-08-19T01:06:40;22.10;;;14.88;;
41293;SDS011;27037;52.010;4.446;2022-08-19T01:09:06;25.83;;;14.93;;
41293;SDS011;27037;52.010;4.446;2022-08-19T01:11:40;23.73;;;14.80;;
41293;SDS011;27037;52.010;4.446;2022-08-19T01:14:09;22.50;;;14.10;;
41293;SDS011;27037;52.010;4.446;2022-08-19T01:16:35;22.65;;;13.85;;
41293;SDS011;27037;52.010;4.446;2022-08-19T01:19:03;22.80;;;14.65;;
41293;SDS011;27037;52.010;4.446;2022-08-19T01:21:45;24.45;;;15.88;;
41293;SDS011;27037;52.010;4.446;2022-08-19T01:24:16;21.55;;;14.85;;
41293;SDS011;27037;52.010;4.446;2022-08-19T01:26:43;21.55;;;14.68;;
41293;SDS011;27037;52.010;4.446;2022-08-19T01:29:10;20.63;;;14.13;;
41293;SDS011;27037;52.010;4.446;2022-08-19T01:31:36;21.55;;;14.35;;
41293;SDS011;27037;52.010;4.446;2022-08-19T01:34:04;22.20;;;14.52;;
41293;SDS011;27037;52.010;4.446;2022-08-19T01:36:32;19.40;;;13.20;;
41293;SDS011;27037;52.010;4.446;2022-08-19T01:39:08;19.73;;;13.52;;
41293;SDS011;27037;52.010;4.446;2022-08-19T01:41:35;19.92;;;13.90;;
41293;SDS011;27037;52.010;4.446;2022-08-19T01:44:01;21.98;;;14.13;;
41293;SDS011;27037;52.010;4.446;2022-08-19T01:46:29;19.63;;;13.05;;
41293;SDS011;27037;52.010;4.446;2022-08-19T01:48:55;22.60;;;12.50;;
41293;SDS011;27037;52.010;4.446;2022-08-19T01:51:21;20.05;;;12.75;;
41293;SDS011;27037;52.010;4.446;2022-08-19T01:53:47;21.70;;;15.30;;
41293;SDS011;27037;52.010;4.446;2022-08-19T01:56:13;23.05;;;15.18;;
41293;SDS011;27037;52.010;4.446;2022-08-19T01:58:41;26.70;;;17.88;;
41293;SDS011;27037;52.010;4.446;2022-08-19T02:01:11;33.55;;;21.23;;
41293;SDS011;27037;52.010;4.446;2022-08-19T02:03:37;27.67;;;20.20;;
41293;SDS011;27037;52.010;4.446;2022-08-19T02:06:03;32.75;;;21.52;;
41293;SDS011;27037;52.010;4.446;2022-08-19T02:08:30;37.30;;;21.77;;
41293;SDS011;27037;52.010;4.446;2022-08-19T02:10:57;33.58;;;21.38;;
41293;SDS011;27037;52.010;4.446;2022-08-19T02:13:23;31.30;;;19.98;;
41293;SDS011;27037;52.010;4.446;2022-08-19T02:15:49;33.13;;;19.55;;
41293;SDS011;27037;52.010;4.446;2022-08-19T02:18:15;32.25;;;20.15;;
41293;SDS011;27037;52.010;4.446;2022-08-19T02:20:42;33.47;;;21.05;;
41293;SDS011;27037;52.010;4.446;2022-08-19T02:23:09;37.00;;;23.00;;
41293;SDS011;27037;52.010;4.446;2022-08-19T02:25:36;39.45;;;22.75;;
41293;SDS011;27037;52.010;4.446;2022-08-19T02:28:03;41.33;;;23.90;;
41293;SDS011;27037;52.010;4.446;2022-08-19T02:30:29;41.03;;;24.75;;
41293;SDS011;27037;52.010;4.446;2022-08-19T02:32:55;40.88;;;25.40;;
41293;SDS011;27037;52.010;4.446;2022-08-19T02:35:21;39.83;;;24.95;;
41293;SDS011;27037;52.010;4.446;2022-08-19T02:37:47;41.28;;;25.35;;
41293;SDS011;27037;52.010;4.446;2022-08-19T02:40:32;41.22;;;26.02;;
41293;SDS011;27037;52.010;4.446;2022-08-19T02:42:59;46.55;;;28.30;;
41293;SDS011;27037;52.010;4.446;2022-08-19T02:45:36;45.40;;;26.95;;
41293;SDS011;27037;52.010;4.446;2022-08-19T02:48:03;50.40;;;28.70;;
41293;SDS011;27037;52.010;4.446;2022-08-19T02:50:29;53.65;;;31.23;;
41293;SDS011;27037;52.010;4.446;2022-08-19T02:52:55;59.58;;;31.25;;
41293;SDS011;27037;52.010;4.446;2022-08-19T02:55:21;54.88;;;32.08;;
41293;SDS011;27037;52.010;4.446;2022-08-19T02:57:47;56.08;;;32.97;;
41293;SDS011;27037;52.010;4.446;2022-08-19T03:00:13;58.88;;;33.97;;
41293;SDS011;27037;52.010;4.446;2022-08-19T03:02:39;57.80;;;32.75;;
41293;SDS011;27037;52.010;4.446;2022-08-19T03:05:06;59.88;;;34.83;;
41293;SDS011;27037;52.010;4.446;2022-08-19T03:07:33;57.13;;;34.38;;
41293;SDS011;27037;52.010;4.446;2022-08-19T03:09:58;60.30;;;35.58;;
41293;SDS011;27037;52.010;4.446;2022-08-19T03:12:24;64.60;;;35.22;;
41293;SDS011;27037;52.010;4.446;2022-08-19T03:14:50;66.18;;;36.25;;
41293;SDS011;27037;52.010;4.446;2022-08-19T03:17:16;63.50;;;36.63;;
41293;SDS011;27037;52.010;4.446;2022-08-19T03:19:42;59.97;;;35.17;;
41293;SDS011;27037;52.010;4.446;2022-08-19T03:22:08;63.58;;;36.95;;
41293;SDS011;27037;52.010;4.446;2022-08-19T03:24:34;65.20;;;36.35;;
41293;SDS011;27037;52.010;4.446;2022-08-19T03:27:00;60.25;;;34.65;;
41293;SDS011;27037;52.010;4.446;2022-08-19T03:29:26;66.78;;;36.33;;
41293;SDS011;27037;52.010;4.446;2022-08-19T03:31:53;65.50;;;37.17;;
41293;SDS011;27037;52.010;4.446;2022-08-19T03:34:21;62.72;;;35.30;;
41293;SDS011;27037;52.010;4.446;2022-08-19T03:36:52;68.55;;;36.38;;
41293;SDS011;27037;52.010;4.446;2022-08-19T03:39:19;67.07;;;36.92;;
41293;SDS011;27037;52.010;4.446;2022-08-19T03:41:46;71.45;;;36.08;;
41293;SDS011;27037;52.010;4.446;2022-08-19T03:44:15;68.78;;;36.15;;
41293;SDS011;27037;52.010;4.446;2022-08-19T03:46:46;67.57;;;36.08;;
41293;SDS011;27037;52.010;4.446;2022-08-19T03:49:13;67.60;;;36.85;;
41293;SDS011;27037;52.010;4.446;2022-08-19T03:51:39;68.70;;;37.22;;
41293;SDS011;27037;52.010;4.446;2022-08-19T03:54:06;71.78;;;38.15;;
41293;SDS011;27037;52.010;4.446;2022-08-19T03:56:37;74.22;;;36.92;;
41293;SDS011;27037;52.010;4.446;2022-08-19T03:59:05;72.40;;;37.10;;
41293;SDS011;27037;52.010;4.446;2022-08-19T04:01:32;66.78;;;36.05;;
41293;SDS011;27037;52.010;4.446;2022-08-19T04:03:58;71.53;;;36.47;;
41293;SDS011;27037;52.010;4.446;2022-08-19T04:06:26;72.28;;;37.95;;
41293;SDS011;27037;52.010;4.446;2022-08-19T04:08:55;73.25;;;38.35;;
41293;SDS011;27037;52.010;4.446;2022-08-19T04:11:23;78.10;;;40.30;;
41293;SDS011;27037;52.010;4.446;2022-08-19T04:13:51;85.53;;;42.45;;
41293;SDS011;27037;52.010;4.446;2022-08-19T04:16:20;85.53;;;42.75;;
41293;SDS011;27037;52.010;4.446;2022-08-19T04:18:47;95.97;;;44.33;;
41293;SDS011;27037;52.010;4.446;2022-08-19T04:21:18;97.50;;;46.78;;
41293;SDS011;27037;52.010;4.446;2022-08-19T04:23:48;100.28;;;47.88;;
41293;SDS011;27037;52.010;4.446;2022-08-19T04:26:14;102.22;;;47.40;;
41293;SDS011;27037;52.010;4.446;2022-08-19T04:28:45;105.35;;;48.70;;
41293;SDS011;27037;52.010;4.446;2022-08-19T04:31:15;109.93;;;49.70;;
41293;SDS011;27037;52.010;4.446;2022-08-19T04:33:43;109.72;;;50.00;;
41293;SDS011;27037;52.010;4.446;2022-08-19T04:36:15;114.07;;;50.20;;
41293;SDS011;27037;52.010;4.446;2022-08-19T04:38:46;108.97;;;49.58;;
41293;SDS011;27037;52.010;4.446;2022-08-19T04:41:13;109.07;;;49.83;;
41293;SDS011;27037;52.010;4.446;2022-08-19T04:43:57;107.47;;;48.97;;
41293;SDS011;27037;52.010;4.446;2022-08-19T04:46:23;113.88;;;50.22;;
41293;SDS011;27037;52.010;4.446;2022-08-19T04:48:49;111.85;;;48.90;;
41293;SDS011;27037;52.010;4.446;2022-08-19T04:51:14;112.07;;;48.75;;
41293;SDS011;27037;52.010;4.446;2022-08-19T04:53:41;102.82;;;46.47;;
41293;SDS011;27037;52.010;4.446;2022-08-19T04:56:07;104.60;;;46.90;;
41293;SDS011;27037;52.010;4.446;2022-08-19T04:58:38;105.68;;;46.28;;
41293;SDS011;27037;52.010;4.446;2022-08-19T05:01:07;109.53;;;45.92;;
41293;SDS011;27037;52.010;4.446;2022-08-19T05:03:35;102.97;;;44.63;;
41293;SDS011;27037;52.010;4.446;2022-08-19T05:06:05;103.82;;;45.72;;
41293;SDS011;27037;52.010;4.446;2022-08-19T05:08:33;98.15;;;43.20;;
41293;SDS011;27037;52.010;4.446;2022-08-19T05:11:01;97.32;;;43.08;;
41293;SDS011;27037;52.010;4.446;2022-08-19T05:13:36;99.35;;;42.53;;
41293;SDS011;27037;52.010;4.446;2022-08-19T05:16:02;105.85;;;44.63;;
41293;SDS011;27037;52.010;4.446;2022-08-19T05:18:27;90.70;;;43.70;;
41293;SDS011;27037;52.010;4.446;2022-08-19T05:21:13;99.97;;;43.97;;
41293;SDS011;27037;52.010;4.446;2022-08-19T05:23:58;96.55;;;43.40;;
41293;SDS011;27037;52.010;4.446;2022-08-19T05:26:24;93.82;;;41.97;;
41293;SDS011;27037;52.010;4.446;2022-08-19T05:28:51;91.97;;;43.50;;
41293;SDS011;27037;52.010;4.446;2022-08-19T05:31:17;96.03;;;42.95;;
41293;SDS011;27037;52.010;4.446;2022-08-19T05:33:44;93.03;;;42.92;;
41293;SDS011;27037;52.010;4.446;2022-08-19T05:36:09;91.85;;;43.85;;
41293;SDS011;27037;52.010;4.446;2022-08-19T05:38:35;84.32;;;42.47;;
41293;SDS011;27037;52.010;4.446;2022-08-19T05:41:06;90.80;;;43.78;;
41293;SDS011;27037;52.010;4.446;2022-08-19T05:43:33;90.93;;;43.05;;
41293;SDS011;27037;52.010;4.446;2022-08-19T05:45:58;79.63;;;40.28;;
41293;SDS011;27037;52.010;4.446;2022-08-19T05:48:25;96.43;;;42.78;;
41293;SDS011;27037;52.010;4.446;2022-08-19T05:50:51;86.10;;;42.67;;
41293;SDS011;27037;52.010;4.446;2022-08-19T05:53:17;87.90;;;43.08;;
41293;SDS011;27037;52.010;4.446;2022-08-19T05:55:43;89.07;;;44.75;;
41293;SDS011;27037;52.010;4.446;2022-08-19T05:58:09;88.53;;;42.90;;
41293;SDS011;27037;52.010;4.446;2022-08-19T06:00:35;78.25;;;41.58;;
41293;SDS011;27037;52.010;4.446;2022-08-19T06:03:02;82.68;;;41.72;;
41293;SDS011;27037;52.010;4.446;2022-08-19T06:05:31;86.35;;;41.20;;
41293;SDS011;27037;52.010;4.446;2022-08-19T06:07:57;81.22;;;40.65;;
41293;SDS011;27037;52.010;4.446;2022-08-19T06:10:24;73.40;;;38.85;;
41293;SDS011;27037;52.010;4.446;2022-08-19T06:12:50;72.88;;;39.67;;
41293;SDS011;27037;52.010;4.446;2022-08-19T06:15:16;82.40;;;40.53;;
41293;SDS011;27037;52.010;4.446;2022-08-19T06:17:42;82.45;;;41.38;;
41293;SDS011;27037;52.010;4.446;2022-08-19T06:20:10;80.88;;;39.55;;
41293;SDS011;27037;52.010;4.446;2022-08-19T06:22:42;78.57;;;39.80;;
41293;SDS011;27037;52.010;4.446;2022-08-19T06:25:09;73.68;;;39.17;;
41293;SDS011;27037;52.010;4.446;2022-08-19T06:27:35;78.78;;;39.85;;
41293;SDS011;27037;52.010;4.446;2022-08-19T06:30:02;69.90;;;38.85;;
41293;SDS011;27037;52.010;4.446;2022-08-19T06:32:29;75.57;;;38.10;;
41293;SDS011;27037;52.010;4.446;2022-08-19T06:34:55;75.97;;;38.72;;
41293;SDS011;27037;52.010;4.446;2022-08-19T06:37:20;62.13;;;36.88;;
41293;SDS011;27037;52.010;4.446;2022-08-19T06:39:47;70.47;;;38.30;;
41293;SDS011;27037;52.010;4.446;2022-08-19T06:42:13;69.28;;;37.20;;
41293;SDS011;27037;52.010;4.446;2022-08-19T06:44:41;72.93;;;36.72;;
41293;SDS011;27037;52.010;4.446;2022-08-19T06:47:08;68.22;;;37.10;;
41293;SDS011;27037;52.010;4.446;2022-08-19T06:49:36;63.03;;;36.63;;
41293;SDS011;27037;52.010;4.446;2022-08-19T06:52:02;70.85;;;35.72;;
41293;SDS011;27037;52.010;4.446;2022-08-19T06:54:28;65.88;;;35.67;;
41293;SDS011;27037;52.010;4.446;2022-08-19T06:56:54;58.08;;;33.78;;
41293;SDS011;27037;52.010;4.446;2022-08-19T06:59:22;64.35;;;33.33;;
41293;SDS011;27037;52.010;4.446;2022-08-19T07:01:52;64.70;;;33.17;;
41293;SDS011;27037;52.010;4.446;2022-08-19T07:04:20;55.65;;;31.80;;
41293;SDS011;27037;52.010;4.446;2022-08-19T07:06:49;57.63;;;30.65;;
41293;SDS011;27037;52.010;4.446;2022-08-19T07:09:15;55.05;;;29.75;;
41293;SDS011;27037;52.010;4.446;2022-08-19T07:11:46;51.65;;;29.13;;
41293;SDS011;27037;52.010;4.446;2022-08-19T07:14:14;52.25;;;30.20;;
41293;SDS011;27037;52.010;4.446;2022-08-19T07:16:43;54.63;;;30.90;;
41293;SDS011;27037;52.010;4.446;2022-08-19T07:19:10;55.78;;;28.88;;
41293;SDS011;27037;52.010;4.446;2022-08-19T07:21:36;54.13;;;29.55;;
41293;SDS011;27037;52.010;4.446;2022-08-19T07:24:02;53.25;;;30.05;;
41293;SDS011;27037;52.010;4.446;2022-08-19T07:26:29;53.30;;;30.50;;
41293;SDS011;27037;52.010;4.446;2022-08-19T07:28:57;49.53;;;28.83;;
41293;SDS011;27037;52.010;4.446;2022-08-19T07:31:26;53.83;;;28.48;;
41293;SDS011;27037;52.010;4.446;2022-08-19T07:33:53;45.35;;;27.60;;
41293;SDS011;27037;52.010;4.446;2022-08-19T07:36:22;44.97;;;26.23;;
41293;SDS011;27037;52.010;4.446;2022-08-19T07:38:49;43.63;;;25.00;;
41293;SDS011;27037;52.010;4.446;2022-08-19T07:41:21;45.40;;;25.85;;
41293;SDS011;27037;52.010;4.446;2022-08-19T07:43:48;50.67;;;27.10;;
41293;SDS011;27037;52.010;4.446;2022-08-19T07:46:14;42.13;;;25.38;;
41293;SDS011;27037;52.010;4.446;2022-08-19T07:48:42;45.22;;;27.30;;
41293;SDS011;27037;52.010;4.446;2022-08-19T07:51:11;43.15;;;24.63;;
41293;SDS011;27037;52.010;4.446;2022-08-19T07:53:38;44.17;;;25.13;;
41293;SDS011;27037;52.010;4.446;2022-08-19T07:56:04;48.13;;;25.27;;
41293;SDS011;27037;52.010;4.446;2022-08-19T07:58:31;44.35;;;23.63;;
41293;SDS011;27037;52.010;4.446;2022-08-19T08:00:58;39.58;;;22.70;;
41293;SDS011;27037;52.010;4.446;2022-08-19T08:03:26;40.30;;;22.55;;
41293;SDS011;27037;52.010;4.446;2022-08-19T08:06:11;46.63;;;22.27;;
41293;SDS011;27037;52.010;4.446;2022-08-19T08:08:56;42.60;;;22.67;;
41293;SDS011;27037;52.010;4.446;2022-08-19T08:11:50;38.03;;;20.45;;
41293;SDS011;27037;52.010;4.446;2022-08-19T08:14:17;39.20;;;20.40;;
41293;SDS011;27037;52.010;4.446;2022-08-19T08:16:47;38.17;;;20.17;;
41293;SDS011;27037;52.010;4.446;2022-08-19T08:19:14;35.17;;;20.08;;
41293;SDS011;27037;52.010;4.446;2022-08-19T08:21:40;34.30;;;18.67;;
41293;SDS011;27037;52.010;4.446;2022-08-19T08:24:07;35.20;;;18.42;;
41293;SDS011;27037;52.010;4.446;2022-08-19T08:26:33;35.25;;;18.33;;
41293;SDS011;27037;52.010;4.446;2022-08-19T08:28:58;33.70;;;17.98;;
41293;SDS011;27037;52.010;4.446;2022-08-19T08:31:24;30.95;;;16.08;;
41293;SDS011;27037;52.010;4.446;2022-08-19T08:33:50;28.27;;;15.75;;
41293;SDS011;27037;52.010;4.446;2022-08-19T08:36:15;30.75;;;15.35;;
41293;SDS011;27037;52.010;4.446;2022-08-19T08:38:42;27.00;;;13.93;;
41293;SDS011;27037;52.010;4.446;2022-08-19T08:41:18;31.15;;;15.18;;
41293;SDS011;27037;52.010;4.446;2022-08-19T08:44:05;28.02;;;13.95;;
41293;SDS011;27037;52.010;4.446;2022-08-19T08:49:11;27.50;;;14.73;;
41293;SDS011;27037;52.010;4.446;2022-08-19T08:51:52;27.70;;;14.52;;
41293;SDS011;27037;52.010;4.446;2022-08-19T08:54:37;22.63;;;13.00;;
41293;SDS011;27037;52.010;4.446;2022-08-19T08:57:14;26.27;;;13.32;;
41293;SDS011;27037;52.010;4.446;2022-08-19T09:00:03;22.23;;;12.52;;
41293;SDS011;27037;52.010;4.446;2022-08-19T09:02:31;23.55;;;11.65;;
41293;SDS011;27037;52.010;4.446;2022-08-19T09:04:57;19.08;;;10.70;;
41293;SDS011;27037;52.010;4.446;2022-08-19T09:15:25;15.30;;;9.65;;
41293;SDS011;27037;52.010;4.446;2022-08-19T09:17:59;21.08;;;10.30;;
41293;SDS011;27037;52.010;4.446;2022-08-19T09:20:27;17.85;;;9.15;;
41293;SDS011;27037;52.010;4.446;2022-08-19T09:22:52;19.13;;;9.70;;
41293;SDS011;27037;52.010;4.446;2022-08-19T09:25:19;18.30;;;9.68;;
41293;SDS011;27037;52.010;4.446;2022-08-19T09:27:47;16.48;;;9.45;;
41293;SDS011;27037;52.010;4.446;2022-08-19T09:30:15;19.50;;;9.00;;
41293;SDS011;27037;52.010;4.446;2022-08-19T09:32:46;15.45;;;9.10;;
41293;SDS011;27037;52.010;4.446;2022-08-19T09:35:12;13.98;;;8.23;;
41293;SDS011;27037;52.010;4.446;2022-08-19T09:37:38;14.68;;;7.63;;
41293;SDS011;27037;52.010;4.446;2022-08-19T09:40:04;13.75;;;7.50;;
41293;SDS011;27037;52.010;4.446;2022-08-19T09:42:31;16.27;;;7.65;;
41293;SDS011;27037;52.010;4.446;2022-08-19T09:44:58;13.80;;;7.25;;
41293;SDS011;27037;52.010;4.446;2022-08-19T09:47:24;13.32;;;6.57;;
41293;SDS011;27037;52.010;4.446;2022-08-19T09:49:50;13.05;;;6.05;;
41293;SDS011;27037;52.010;4.446;2022-08-19T09:52:15;15.75;;;6.30;;
41293;SDS011;27037;52.010;4.446;2022-08-19T09:54:42;11.48;;;6.07;;
41293;SDS011;27037;52.010;4.446;2022-08-19T09:57:08;11.82;;;4.90;;
41293;SDS011;27037;52.010;4.446;2022-08-19T09:59:34;9.25;;;5.10;;
41293;SDS011;27037;52.010;4.446;2022-08-19T10:02:00;14.38;;;6.18;;
41293;SDS011;27037;52.010;4.446;2022-08-19T10:04:27;13.90;;;5.82;;
41293;SDS011;27037;52.010;4.446;2022-08-19T10:07:12;15.95;;;6.45;;
41293;SDS011;27037;52.010;4.446;2022-08-19T10:09:38;9.85;;;5.68;;
41293;SDS011;27037;52.010;4.446;2022-08-19T10:12:05;11.15;;;5.25;;
41293;SDS011;27037;52.010;4.446;2022-08-19T10:14:32;6.82;;;5.03;;
41293;SDS011;27037;52.010;4.446;2022-08-19T10:16:58;10.20;;;4.10;;
41293;SDS011;27037;52.010;4.446;2022-08-19T10:19:25;7.75;;;4.30;;
41293;SDS011;27037;52.010;4.446;2022-08-19T10:21:53;9.98;;;4.32;;
41293;SDS011;27037;52.010;4.446;2022-08-19T10:24:19;6.47;;;3.75;;
41293;SDS011;27037;52.010;4.446;2022-08-19T10:26:45;8.10;;;4.20;;
41293;SDS011;27037;52.010;4.446;2022-08-19T10:29:13;5.95;;;3.33;;
41293;SDS011;27037;52.010;4.446;2022-08-19T10:31:41;7.47;;;3.00;;
41293;SDS011;27037;52.010;4.446;2022-08-19T10:34:06;6.15;;;3.00;;
41293;SDS011;27037;52.010;4.446;2022-08-19T10:36:33;5.82;;;2.60;;
41293;SDS011;27037;52.010;4.446;2022-08-19T10:39:01;6.28;;;2.97;;
41293;SDS011;27037;52.010;4.446;2022-08-19T10:41:32;5.72;;;3.50;;
41293;SDS011;27037;52.010;4.446;2022-08-19T10:44:00;6.38;;;3.50;;
41293;SDS011;27037;52.010;4.446;2022-08-19T10:46:31;9.00;;;3.72;;
41293;SDS011;27037;52.010;4.446;2022-08-19T10:49:00;6.68;;;3.63;;
41293;SDS011;27037;52.010;4.446;2022-08-19T10:51:27;8.40;;;3.42;;
41293;SDS011;27037;52.010;4.446;2022-08-19T10:54:12;7.78;;;3.13;;
41293;SDS011;27037;52.010;4.446;2022-08-19T10:56:37;9.52;;;2.85;;
41293;SDS011;27037;52.010;4.446;2022-08-19T10:59:20;5.78;;;2.88;;
41293;SDS011;27037;52.010;4.446;2022-08-19T11:01:49;6.97;;;3.00;;
41293;SDS011;27037;52.010;4.446;2022-08-19T11:04:16;4.78;;;2.90;;
41293;SDS011;27037;52.010;4.446;2022-08-19T11:06:44;6.28;;;3.17;;
41293;SDS011;27037;52.010;4.446;2022-08-19T11:09:12;6.82;;;2.97;;
41293;SDS011;27037;52.010;4.446;2022-08-19T11:11:40;4.60;;;3.05;;
41293;SDS011;27037;52.010;4.446;2022-08-19T11:14:07;6.35;;;3.33;;
41293;SDS011;27037;52.010;4.446;2022-08-19T11:16:34;6.13;;;3.05;;
41293;SDS011;27037;52.010;4.446;2022-08-19T11:19:01;5.75;;;2.78;;
41293;SDS011;27037;52.010;4.446;2022-08-19T11:24:02;3.80;;;2.53;;
41293;SDS011;27037;52.010;4.446;2022-08-19T11:26:30;5.10;;;2.22;;
41293;SDS011;27037;52.010;4.446;2022-08-19T11:28:57;6.35;;;2.90;;
41293;SDS011;27037;52.010;4.446;2022-08-19T11:31:24;8.40;;;2.90;;
41293;SDS011;27037;52.010;4.446;2022-08-19T11:33:59;7.68;;;3.05;;
41293;SDS011;27037;52.010;4.446;2022-08-19T11:36:28;8.88;;;2.72;;
41293;SDS011;27037;52.010;4.446;2022-08-19T11:38:54;8.05;;;3.05;;
41293;SDS011;27037;52.010;4.446;2022-08-19T11:41:21;6.97;;;2.80;;
41293;SDS011;27037;52.010;4.446;2022-08-19T11:43:51;4.55;;;2.70;;
41293;SDS011;27037;52.010;4.446;2022-08-19T11:46:20;7.15;;;3.00;;
41293;SDS011;27037;52.010;4.446;2022-08-19T11:48:47;6.63;;;2.88;;
41293;SDS011;27037;52.010;4.446;2022-08-19T11:51:15;7.07;;;2.85;;
41293;SDS011;27037;52.010;4.446;2022-08-19T11:53:43;5.72;;;2.67;;
41293;SDS011;27037;52.010;4.446;2022-08-19T11:56:10;5.38;;;2.80;;
41293;SDS011;27037;52.010;4.446;2022-08-19T11:58:37;6.90;;;2.92;;
41293;SDS011;27037;52.010;4.446;2022-08-19T12:01:13;5.00;;;2.40;;
41293;SDS011;27037;52.010;4.446;2022-08-19T12:03:41;4.45;;;2.72;;
41293;SDS011;27037;52.010;4.446;2022-08-19T12:06:09;6.97;;;2.42;;
41293;SDS011;27037;52.010;4.446;2022-08-19T12:08:38;8.40;;;2.78;;
41293;SDS011;27037;52.010;4.446;2022-08-19T12:11:04;5.15;;;2.60;;
41293;SDS011;27037;52.010;4.446;2022-08-19T12:13:33;5.90;;;2.70;;
41293;SDS011;27037;52.010;4.446;2022-08-19T12:15:59;6.18;;;3.05;;
41293;SDS011;27037;52.010;4.446;2022-08-19T12:18:25;6.72;;;3.08;;
41293;SDS011;27037;52.010;4.446;2022-08-19T12:20:52;6.53;;;3.03;;
41293;SDS011;27037;52.010;4.446;2022-08-19T12:23:19;6.55;;;3.00;;
41293;SDS011;27037;52.010;4.446;2022-08-19T12:25:47;5.78;;;3.10;;
41293;SDS011;27037;52.010;4.446;2022-08-19T12:28:17;7.65;;;3.08;;
41293;SDS011;27037;52.010;4.446;2022-08-19T12:30:48;7.25;;;3.03;;
41293;SDS011;27037;52.010;4.446;2022-08-19T12:33:16;6.13;;;2.80;;
41293;SDS011;27037;52.010;4.446;2022-08-19T12:35:43;6.90;;;2.97;;
41293;SDS011;27037;52.010;4.446;2022-08-19T12:38:11;7.28;;;3.33;;
41293;SDS011;27037;52.010;4.446;2022-08-19T12:40:38;6.70;;;3.30;;
41293;SDS011;27037;52.010;4.446;2022-08-19T12:43:05;8.02;;;3.67;;
41293;SDS011;27037;52.010;4.446;2022-08-19T12:45:31;7.07;;;3.22;;
41293;SDS011;27037;52.010;4.446;2022-08-19T12:47:56;9.88;;;3.30;;
41293;SDS011;27037;52.010;4.446;2022-08-19T12:50:23;5.57;;;3.25;;
41293;SDS011;27037;52.010;4.446;2022-08-19T12:52:49;8.85;;;3.15;;
41293;SDS011;27037;52.010;4.446;2022-08-19T12:55:14;5.63;;;2.80;;
41293;SDS011;27037;52.010;4.446;2022-08-19T12:57:41;5.70;;;3.13;;
41293;SDS011;27037;52.010;4.446;2022-08-19T13:00:09;8.35;;;3.22;;
41293;SDS011;27037;52.010;4.446;2022-08-19T13:02:38;4.22;;;2.45;;
41293;SDS011;27037;52.010;4.446;2022-08-19T13:05:06;7.28;;;3.22;;
41293;SDS011;27037;52.010;4.446;2022-08-19T13:07:33;5.05;;;2.90;;
41293;SDS011;27037;52.010;4.446;2022-08-19T13:09:59;5.15;;;2.70;;
41293;SDS011;27037;52.010;4.446;2022-08-19T13:12:25;4.32;;;2.70;;
41293;SDS011;27037;52.010;4.446;2022-08-19T13:14:52;7.47;;;2.97;;
41293;SDS011;27037;52.010;4.446;2022-08-19T13:17:18;5.45;;;2.70;;
41293;SDS011;27037;52.010;4.446;2022-08-19T13:19:44;6.18;;;2.72;;
41293;SDS011;27037;52.010;4.446;2022-08-19T13:22:10;5.30;;;2.55;;
41293;SDS011;27037;52.010;4.446;2022-08-19T13:24:37;4.20;;;2.70;;
41293;SDS011;27037;52.010;4.446;2022-08-19T13:27:03;5.63;;;3.10;;
41293;SDS011;27037;52.010;4.446;2022-08-19T13:29:28;7.80;;;2.88;;
41293;SDS011;27037;52.010;4.446;2022-08-19T13:32:13;5.28;;;2.90;;
41293;SDS011;27037;52.010;4.446;2022-08-19T13:34:56;4.38;;;2.58;;
41293;SDS011;27037;52.010;4.446;2022-08-19T13:37:22;5.47;;;2.30;;
41293;SDS011;27037;52.010;4.446;2022-08-19T13:40:06;5.65;;;2.35;;
41293;SDS011;27037;52.010;4.446;2022-08-19T13:42:37;3.60;;;2.25;;
41293;SDS011;27037;52.010;4.446;2022-08-19T13:45:04;5.78;;;2.88;;
41293;SDS011;27037;52.010;4.446;2022-08-19T13:47:31;5.07;;;2.45;;
41293;SDS011;27037;52.010;4.446;2022-08-19T13:49:59;3.42;;;2.30;;
41293;SDS011;27037;52.010;4.446;2022-08-19T13:52:25;6.38;;;2.33;;
41293;SDS011;27037;52.010;4.446;2022-08-19T13:54:51;4.80;;;2.38;;
41293;SDS011;27037;52.010;4.446;2022-08-19T13:57:17;5.40;;;2.83;;
41293;SDS011;27037;52.010;4.446;2022-08-19T13:59:42;4.93;;;2.40;;
41293;SDS011;27037;52.010;4.446;2022-08-19T14:02:08;2.35;;;1.73;;
41293;SDS011;27037;52.010;4.446;2022-08-19T14:04:33;5.07;;;1.70;;
41293;SDS011;27037;52.010;4.446;2022-08-19T14:06:59;3.13;;;1.80;;
41293;SDS011;27037;52.010;4.446;2022-08-19T14:09:24;5.00;;;1.95;;
41293;SDS011;27037;52.010;4.446;2022-08-19T14:11:50;6.25;;;2.10;;
41293;SDS011;27037;52.010;4.446;2022-08-19T14:14:16;6.38;;;2.42;;
41293;SDS011;27037;52.010;4.446;2022-08-19T14:16:41;3.17;;;2.10;;
41293;SDS011;27037;52.010;4.446;2022-08-19T14:19:07;5.45;;;2.55;;
41293;SDS011;27037;52.010;4.446;2022-08-19T14:21:33;4.47;;;2.50;;
41293;SDS011;27037;52.010;4.446;2022-08-19T14:24:00;4.32;;;2.35;;
41293;SDS011;27037;52.010;4.446;2022-08-19T14:26:26;3.78;;;2.40;;
41293;SDS011;27037;52.010;4.446;2022-08-19T14:28:52;4.60;;;2.63;;
41293;SDS011;27037;52.010;4.446;2022-08-19T14:31:18;3.95;;;2.50;;
41293;SDS011;27037;52.010;4.446;2022-08-19T14:33:45;4.88;;;2.67;;
41293;SDS011;27037;52.010;4.446;2022-08-19T14:36:12;4.07;;;3.03;;
41293;SDS011;27037;52.010;4.446;2022-08-19T14:38:37;7.82;;;3.25;;
41293;SDS011;27037;52.010;4.446;2022-08-19T14:41:16;6.15;;;2.70;;
41293;SDS011;27037;52.010;4.446;2022-08-19T14:43:45;4.50;;;2.67;;
41293;SDS011;27037;52.010;4.446;2022-08-19T14:46:17;4.13;;;2.72;;
41293;SDS011;27037;52.010;4.446;2022-08-19T14:48:45;6.57;;;2.60;;